Time;durP1;ratioP1;P1;durP2;ratioP2;P2;SDS_P1;SDS_P2;PMS_P1;PMS_P2;Temp;Humidity;BMP_temperature;BMP_pressure;BME280_temperature;BME280_humidity;BME280_pressure;Samples;Min_cycle;Max_cycle;Signal;HPM_P1;HPM_P2
2024/01/27 00:01:39;;;;;;;14.67;8.33;;;;;;;0.11;100.00;99294.91;5062523;28;20042;-70
2024/01/27 00:04:05;;;;;;;14.73;7.93;;;;;;;0.09;100.00;99294.19;5114149;28;20071;-71
2024/01/27 00:06:31;;;;;;;14.57;8.17;;;;;;;0.03;100.00;99285.94;5080622;28;20071;-70
2024/01/27 00:08:57;;;;;;;12.73;7.27;;;;;;;0.06;100.00;99289.19;5080140;28;20082;-70
2024/01/27 00:11:24;;;;;;;13.27;7.63;;;;;;;0.00;100.00;99279.16;5080735;28;20055;-70
2024/01/27 00:13:50;;;;;;;12.87;7.03;;;;;;;0.02;100.00;99286.88;5080624;28;20047;-70
2024/01/27 00:16:16;;;;;;;13.90;7.80;;;;;;;0.04;100.00;99285.81;5115001;28;20052;-70
2024/01/27 00:18:42;;;;;;;14.17;7.77;;;;;;;0.00;100.00;99287.78;5115050;28;20051;-69
2024/01/27 00:21:08;;;;;;;15.37;8.33;;;;;;;0.01;100.00;99299.06;5080849;28;20444;-70
2024/01/27 00:23:34;;;;;;;13.20;8.00;;;;;;;-0.03;100.00;99285.38;5098052;28;20043;-69
2024/01/27 00:26:03;;;;;;;13.10;7.40;;;;;;;0.06;100.00;99297.00;5114121;28;20040;-70
2024/01/27 00:28:29;;;;;;;14.97;8.47;;;;;;;-0.05;100.00;99294.25;5112882;28;20039;-70
2024/01/27 00:30:55;;;;;;;13.67;7.70;;;;;;;-0.08;100.00;99294.47;5095979;28;20205;-70
2024/01/27 00:33:22;;;;;;;14.07;7.87;;;;;;;-0.09;100.00;99293.63;5113664;28;20051;-70
2024/01/27 00:35:48;;;;;;;14.33;7.80;;;;;;;-0.12;100.00;99290.34;5080474;28;20040;-70
2024/01/27 00:38:14;;;;;;;15.07;8.03;;;;;;;-0.14;100.00;99290.47;5112845;28;20092;-70
2024/01/27 00:40:41;;;;;;;16.53;8.00;;;;;;;-0.16;100.00;99292.34;5077316;28;20534;-70
2024/01/27 00:43:07;;;;;;;14.30;8.03;;;;;;;-0.15;100.00;99298.38;5094437;28;20047;-73
2024/01/27 00:45:33;;;;;;;12.63;7.50;;;;;;;-0.20;100.00;99290.88;5094442;28;20074;-72
2024/01/27 00:47:59;;;;;;;16.73;8.60;;;;;;;-0.20;100.00;99290.88;5056884;28;20483;-70
2024/01/27 00:50:25;;;;;;;15.60;8.20;;;;;;;-0.17;100.00;99288.06;5090763;28;20491;-70
2024/01/27 00:52:51;;;;;;;13.97;8.10;;;;;;;-0.17;100.00;99287.25;5073670;28;20055;-70
2024/01/27 00:55:17;;;;;;;15.53;8.57;;;;;;;-0.16;100.00;99294.13;5040953;28;20056;-70
2024/01/27 00:57:45;;;;;;;18.43;8.83;;;;;;;-0.15;100.00;99286.19;5074046;28;20044;-69
2024/01/27 01:00:11;;;;;;;16.37;9.00;;;;;;;-0.11;100.00;99295.47;5073964;28;20070;-69
2024/01/27 01:02:37;;;;;;;15.10;8.37;;;;;;;-0.08;100.00;99284.03;5074037;28;20156;-71
2024/01/27 01:05:04;;;;;;;16.10;8.63;;;;;;;-0.06;100.00;99284.72;5057307;28;20048;-72
2024/01/27 01:07:31;;;;;;;16.90;8.70;;;;;;;-0.08;100.00;99294.47;5073823;28;20365;-71
2024/01/27 01:09:57;;;;;;;17.33;8.70;;;;;;;-0.16;100.00;99286.28;5074454;28;20032;-70
2024/01/27 01:12:23;;;;;;;19.80;9.77;;;;;;;-0.20;100.00;99290.88;5073838;28;20048;-69
2024/01/27 01:14:50;;;;;;;16.27;9.23;;;;;;;-0.25;100.00;99290.31;5074430;28;20044;-70
2024/01/27 01:17:16;;;;;;;19.40;9.50;;;;;;;-0.22;100.00;99297.97;5091510;28;20075;-70
2024/01/27 01:19:42;;;;;;;17.53;9.93;;;;;;;-0.26;100.00;99304.31;5071048;28;20048;-70
2024/01/27 01:22:08;;;;;;;17.63;9.40;;;;;;;-0.28;100.00;99305.34;5112384;28;20108;-71
2024/01/27 01:24:36;;;;;;;17.43;9.70;;;;;;;-0.17;100.00;99306.31;5112191;28;20489;-70
2024/01/27 01:27:03;;;;;;;20.50;10.43;;;;;;;-0.28;100.00;99302.75;5094296;28;20071;-70
2024/01/27 01:29:29;;;;;;;20.43;10.00;;;;;;;-0.24;100.00;99302.44;5077788;28;20183;-70
2024/01/27 01:31:55;;;;;;;18.37;9.40;;;;;;;-0.27;100.00;99305.25;5061381;28;20418;-70
2024/01/27 01:34:21;;;;;;;17.77;9.50;;;;;;;-0.26;100.00;99306.91;5111807;28;20044;-70
2024/01/27 01:36:48;;;;;;;17.07;9.17;;;;;;;-0.26;100.00;99299.09;5102265;28;20059;-70
2024/01/27 01:39:15;;;;;;;18.07;9.40;;;;;;;-0.18;100.00;99299.44;5128989;27;20081;-70
2024/01/27 01:41:41;;;;;;;17.47;9.77;;;;;;;-0.28;100.00;99306.16;5097237;27;20115;-71
2024/01/27 01:44:07;;;;;;;17.57;9.53;;;;;;;-0.30;100.00;99305.44;5080748;27;20047;-70
2024/01/27 01:46:34;;;;;;;19.30;10.13;;;;;;;-0.31;100.00;99301.16;5096777;28;20064;-69
2024/01/27 01:49:01;;;;;;;21.63;10.63;;;;;;;-0.36;100.00;99294.56;5097097;27;20043;-70
2024/01/27 01:51:27;;;;;;;21.40;10.37;;;;;;;-0.35;100.00;99298.84;5113957;28;20063;-69
2024/01/27 01:53:57;;;;;;;18.93;10.43;;;;;;;-0.28;100.00;99308.78;5073308;28;20059;-69
2024/01/27 01:56:24;;;;;;;19.27;10.17;;;;;;;-0.42;100.00;99300.19;5039909;28;20078;-69
2024/01/27 01:58:50;;;;;;;19.07;10.10;;;;;;;-0.44;100.00;99295.06;5075444;28;20044;-69
2024/01/27 02:01:19;;;;;;;20.27;10.13;;;;;;;-0.32;100.00;99301.25;5077742;28;20158;-69
2024/01/27 02:03:54;;;;;;;17.27;10.53;;;;;;;-0.31;100.00;99295.13;5094139;28;20060;-69
2024/01/27 02:06:21;;;;;;;21.00;10.53;;;;;;;-0.50;100.00;99295.44;5078040;28;20047;-69
2024/01/27 02:08:47;;;;;;;21.70;10.90;;;;;;;-0.51;100.00;99308.59;5077103;28;20113;-69
2024/01/27 02:11:13;;;;;;;19.50;10.83;;;;;;;-0.51;100.00;99308.59;5094373;28;20063;-71
2024/01/27 02:13:39;;;;;;;18.77;10.37;;;;;;;-0.47;100.00;99316.13;5077812;28;20131;-69
2024/01/27 02:16:05;;;;;;;23.00;10.70;;;;;;;-0.47;100.00;99317.88;5077665;28;20197;-70
2024/01/27 02:18:31;;;;;;;18.60;10.07;;;;;;;-0.45;100.00;99311.66;5076810;28;20527;-69
2024/01/27 02:20:57;;;;;;;21.07;10.10;;;;;;;-0.42;100.00;99308.84;5094021;28;20391;-69
2024/01/27 02:23:23;;;;;;;19.43;10.67;;;;;;;-0.42;100.00;99316.69;5060141;28;20044;-69
2024/01/27 02:25:50;;;;;;;20.93;11.27;;;;;;;-0.43;100.00;99314.16;5110940;28;20055;-69
2024/01/27 02:28:18;;;;;;;21.43;11.63;;;;;;;-0.40;100.00;99317.41;5098782;28;20146;-69
2024/01/27 02:30:44;;;;;;;19.77;10.67;;;;;;;-0.43;100.00;99311.56;5081800;28;20055;-70
2024/01/27 02:33:10;;;;;;;21.87;11.37;;;;;;;-0.43;100.00;99316.78;5043348;28;20063;-69
2024/01/27 02:35:36;;;;;;;21.73;11.20;;;;;;;-0.47;100.00;99325.72;5043429;28;20112;-70
2024/01/27 02:38:02;;;;;;;20.37;11.37;;;;;;;-0.49;100.00;99325.81;5075003;28;20048;-69
2024/01/27 02:40:29;;;;;;;20.50;11.53;;;;;;;-0.47;100.00;99331.78;5041737;28;20518;-69
2024/01/27 02:42:55;;;;;;;21.80;11.63;;;;;;;-0.49;100.00;99324.97;5074440;28;20044;-70
2024/01/27 02:45:21;;;;;;;22.13;12.37;;;;;;;-0.52;100.00;99326.00;5074140;28;20048;-69
2024/01/27 02:47:47;;;;;;;22.90;12.27;;;;;;;-0.56;100.00;99334.13;5058598;28;20587;-69
2024/01/27 02:50:13;;;;;;;21.27;12.20;;;;;;;-0.56;100.00;99328.91;5076950;28;20044;-70
2024/01/27 02:52:39;;;;;;;24.30;12.93;;;;;;;-0.60;100.00;99333.47;5076227;28;20116;-70
2024/01/27 02:55:05;;;;;;;24.00;13.30;;;;;;;-0.63;100.00;99333.66;5059516;28;20131;-69
2024/01/27 02:57:32;;;;;;;25.30;12.20;;;;;;;-0.72;100.00;99336.84;5026394;28;20060;-69
2024/01/27 02:59:58;;;;;;;30.13;13.50;;;;;;;-0.71;100.00;99340.28;5092935;28;20157;-70
2024/01/27 03:02:24;;;;;;;26.53;13.27;;;;;;;-0.78;100.00;99341.59;5092651;28;20066;-69
2024/01/27 03:04:50;;;;;;;27.37;13.07;;;;;;;-0.86;100.00;99341.25;5057809;28;20048;-70
2024/01/27 03:07:16;;;;;;;24.17;13.13;;;;;;;-0.90;100.00;99347.56;5041127;28;20538;-71
2024/01/27 03:09:43;;;;;;;28.80;14.97;;;;;;;-0.84;100.00;99340.22;5076316;28;20054;-70
2024/01/27 03:12:11;;;;;;;28.57;14.87;;;;;;;-0.96;100.00;99345.34;5096528;28;20067;-69
2024/01/27 03:14:37;;;;;;;30.13;15.60;;;;;;;-1.01;100.00;99353.44;5112381;28;20044;-70
2024/01/27 03:17:03;;;;;;;27.13;14.70;;;;;;;-1.02;100.00;99356.13;5096164;28;20047;-69
2024/01/27 03:19:30;;;;;;;26.13;15.00;;;;;;;-1.06;100.00;99352.88;5114788;28;20419;-69
2024/01/27 03:21:57;;;;;;;33.37;16.87;;;;;;;-1.10;100.00;99343.56;5079800;28;20039;-70
2024/01/27 03:24:23;;;;;;;32.87;16.73;;;;;;;-1.14;100.00;99334.28;5097168;28;20051;-71
2024/01/27 03:26:49;;;;;;;33.53;16.97;;;;;;;-1.15;100.00;99355.22;5114554;28;20039;-71
2024/01/27 03:29:14;;;;;;;30.07;16.17;;;;;;;-1.17;100.00;99357.88;5046355;28;20047;-70
2024/01/27 03:31:40;;;;;;;30.70;15.50;;;;;;;-1.17;100.00;99357.88;5115447;28;20050;-70
2024/01/27 03:34:07;;;;;;;29.07;15.07;;;;;;;-1.20;100.00;99358.06;5116097;28;20139;-70
2024/01/27 03:36:32;;;;;;;27.97;14.63;;;;;;;-1.20;100.00;99368.47;5114863;28;20067;-71
2024/01/27 03:39:00;;;;;;;26.90;14.00;;;;;;;-1.18;100.00;99366.63;5114811;28;20040;-71
2024/01/27 03:41:26;;;;;;;32.33;15.23;;;;;;;-1.18;100.00;99369.25;5114495;28;20058;-71
2024/01/27 03:43:52;;;;;;;29.30;14.87;;;;;;;-1.18;100.00;99376.22;5114251;28;20124;-71
2024/01/27 03:46:18;;;;;;;28.67;14.00;;;;;;;-1.18;100.00;99386.63;5097432;28;20047;-70
2024/01/27 03:48:44;;;;;;;25.13;14.47;;;;;;;-1.17;100.00;99383.94;5113982;28;20089;-72
2024/01/27 03:51:10;;;;;;;26.40;13.70;;;;;;;-1.17;100.00;99383.94;5096855;28;20044;-69
2024/01/27 03:53:36;;;;;;;26.20;12.93;;;;;;;-1.17;100.00;99381.31;5097242;28;20471;-70
2024/01/27 03:56:04;;;;;;;28.67;13.63;;;;;;;-1.20;100.00;99372.88;5113249;28;20043;-71
2024/01/27 03:58:31;;;;;;;26.80;12.63;;;;;;;-1.16;100.00;99385.63;5114188;28;20071;-70
2024/01/27 04:00:57;;;;;;;26.03;13.60;;;;;;;-1.21;100.00;99386.81;5113331;28;20075;-67
2024/01/27 04:03:23;;;;;;;24.37;12.50;;;;;;;-1.22;100.00;99398.16;5096778;28;20134;-70
2024/01/27 04:05:49;;;;;;;24.93;12.00;;;;;;;-1.22;100.00;99391.22;5130803;27;20039;-68
2024/01/27 04:08:15;;;;;;;26.53;12.70;;;;;;;-1.20;100.00;99404.97;5078804;28;20397;-66
2024/01/27 04:10:40;;;;;;;26.07;12.17;;;;;;;-1.22;100.00;99396.41;5130680;27;20039;-69
2024/01/27 04:13:06;;;;;;;27.47;12.90;;;;;;;-1.18;100.00;99405.72;5096517;28;20479;-69
2024/01/27 04:15:38;;;;;;;28.70;13.23;;;;;;;-1.01;100.00;99402.09;5130536;27;20051;-69
2024/01/27 04:18:11;;;;;;;21.80;11.60;;;;;;;-1.07;100.00;99411.13;5114374;28;20032;-70
2024/01/27 04:20:37;;;;;;;23.43;12.10;;;;;;;-1.14;100.00;99419.41;5112838;28;20039;-72
2024/01/27 04:23:03;;;;;;;22.80;11.30;;;;;;;-1.16;100.00;99416.91;5114819;28;20047;-70
2024/01/27 04:25:29;;;;;;;24.90;10.87;;;;;;;-1.13;100.00;99424.53;5113840;27;20067;-70
2024/01/27 04:27:55;;;;;;;20.23;10.43;;;;;;;-1.17;100.00;99430.00;5113927;28;20040;-70
2024/01/27 04:30:22;;;;;;;19.97;10.53;;;;;;;-1.14;100.00;99429.84;5095499;28;20411;-70
2024/01/27 04:32:49;;;;;;;21.60;10.47;;;;;;;-1.18;100.00;99439.59;5113302;28;20517;-69
2024/01/27 04:35:16;;;;;;;19.63;10.47;;;;;;;-1.16;100.00;99429.91;5112943;28;20039;-72
2024/01/27 04:37:44;;;;;;;23.10;11.53;;;;;;;-1.20;100.00;99433.63;5095632;28;20080;-70
2024/01/27 04:40:11;;;;;;;22.03;11.07;;;;;;;-1.24;100.00;99439.94;5112175;28;20040;-70
2024/01/27 04:42:38;;;;;;;19.33;10.03;;;;;;;-1.25;100.00;99437.44;5095198;28;20104;-69
2024/01/27 04:45:05;;;;;;;20.37;10.23;;;;;;;-1.27;100.00;99447.94;5112748;28;20410;-70
2024/01/27 04:47:31;;;;;;;24.40;11.33;;;;;;;-1.38;100.00;99442.50;5113189;28;20058;-69
2024/01/27 04:49:58;;;;;;;20.00;10.73;;;;;;;-1.45;100.00;99436.00;5112927;28;20131;-69
2024/01/27 04:52:25;;;;;;;22.83;11.63;;;;;;;-1.50;100.00;99443.22;5114739;28;20482;-70
2024/01/27 04:54:50;;;;;;;21.63;11.73;;;;;;;-1.54;100.00;99444.34;5114801;28;20051;-65
2024/01/27 04:57:16;;;;;;;19.33;10.63;;;;;;;-1.54;100.00;99457.34;5111196;28;20047;-71
2024/01/27 04:59:42;;;;;;;20.20;11.60;;;;;;;-1.55;100.00;99458.25;5110318;28;20035;-68
2024/01/27 05:02:08;;;;;;;21.93;11.60;;;;;;;-1.54;100.00;99457.34;5111305;28;20032;-70
2024/01/27 05:04:33;;;;;;;22.17;11.40;;;;;;;-1.53;100.00;99464.22;5128296;27;20031;-71
2024/01/27 05:06:59;;;;;;;20.00;10.97;;;;;;;-1.52;100.00;99465.91;5110292;28;20073;-68
2024/01/27 05:09:25;;;;;;;21.77;11.73;;;;;;;-1.52;100.00;99468.50;5109937;28;20492;-68
2024/01/27 05:11:53;;;;;;;22.30;10.77;;;;;;;-1.48;100.00;99475.22;5111392;28;20376;-70
2024/01/27 05:14:19;;;;;;;18.60;10.37;;;;;;;-1.46;100.00;99468.16;5112371;28;20104;-68
2024/01/27 05:16:45;;;;;;;16.50;9.97;;;;;;;-1.41;100.00;99466.13;5112962;28;20047;-70
2024/01/27 05:19:11;;;;;;;20.73;10.87;;;;;;;-1.39;100.00;99472.09;5113069;28;20138;-70
2024/01/27 05:21:38;;;;;;;18.87;10.27;;;;;;;-1.32;100.00;99480.41;5117545;28;20478;-71
2024/01/27 05:24:04;;;;;;;19.87;10.80;;;;;;;-1.36;100.00;99471.91;5114503;28;20076;-71
2024/01/27 05:26:30;;;;;;;17.97;10.33;;;;;;;-1.33;100.00;99471.75;5113252;28;20047;-71
2024/01/27 05:28:56;;;;;;;20.30;11.10;;;;;;;-1.32;100.00;99476.00;5113595;28;20055;-71
2024/01/27 05:31:22;;;;;;;18.43;11.00;;;;;;;-1.32;100.00;99477.81;5113500;28;20064;-72
2024/01/27 05:33:47;;;;;;;21.80;11.63;;;;;;;-1.33;100.00;99486.53;5112998;28;20092;-68
2024/01/27 05:36:13;;;;;;;19.40;11.30;;;;;;;-1.36;100.00;99476.28;5113103;28;20039;-67
2024/01/27 05:38:39;;;;;;;19.20;11.07;;;;;;;-1.34;100.00;99485.69;5112956;28;20511;-68
2024/01/27 05:41:04;;;;;;;18.77;10.40;;;;;;;-1.29;100.00;99485.44;5112106;28;20044;-70
2024/01/27 05:43:30;;;;;;;20.97;10.53;;;;;;;-1.28;100.00;99480.13;5113159;28;20426;-70
2024/01/27 05:45:56;;;;;;;15.17;9.30;;;;;;;-1.22;100.00;99469.34;5112034;28;20043;-73
2024/01/27 05:48:22;;;;;;;16.77;10.00;;;;;;;-1.22;100.00;99485.00;5113279;28;20059;-71
2024/01/27 05:50:58;;;;;;;18.23;10.03;;;;;;;-1.02;100.00;99484.69;5117491;28;20039;-72
2024/01/27 05:53:25;;;;;;;20.07;10.00;;;;;;;-1.11;100.00;99495.63;5131344;28;20031;-64
2024/01/27 05:55:52;;;;;;;16.53;10.00;;;;;;;-1.13;100.00;99488.81;5132658;27;20041;-71
2024/01/27 05:58:20;;;;;;;17.80;10.10;;;;;;;-1.16;100.00;99489.00;5133336;28;20038;-71
2024/01/27 06:00:47;;;;;;;16.27;9.70;;;;;;;-1.06;100.00;99492.75;5133025;27;20097;-70
2024/01/27 06:03:14;;;;;;;14.87;9.10;;;;;;;-1.08;100.00;99500.66;5116011;28;20076;-72
2024/01/27 06:05:41;;;;;;;20.97;10.40;;;;;;;-1.01;100.00;99507.19;5133146;27;20035;-71
2024/01/27 06:08:08;;;;;;;15.80;8.77;;;;;;;-1.06;100.00;99505.78;5132813;27;20046;-72
2024/01/27 06:10:36;;;;;;;13.53;8.10;;;;;;;-1.07;100.00;99507.56;5132801;27;20043;-74
2024/01/27 06:13:03;;;;;;;15.17;8.10;;;;;;;-0.99;100.00;99502.75;5132607;27;20115;-72
2024/01/27 06:15:29;;;;;;;14.83;8.00;;;;;;;-1.01;100.00;99515.00;5132161;27;20035;-73
2024/01/27 06:17:55;;;;;;;16.07;8.27;;;;;;;-0.94;100.00;99521.53;5132800;27;20095;-71
2024/01/27 06:20:21;;;;;;;13.63;8.27;;;;;;;-0.93;100.00;99498.91;5094992;28;20054;-70
2024/01/27 06:22:47;;;;;;;17.07;8.80;;;;;;;-0.85;100.00;99512.34;5129515;27;20035;-70
2024/01/27 06:25:12;;;;;;;17.47;8.60;;;;;;;-0.83;100.00;99520.94;5115049;28;20043;-72
2024/01/27 06:27:38;;;;;;;17.37;9.57;;;;;;;-0.79;100.00;99522.41;5131413;27;20450;-71
2024/01/27 06:30:05;;;;;;;16.00;8.67;;;;;;;-0.73;100.00;99528.13;5131710;27;20051;-73
2024/01/27 06:32:31;;;;;;;19.93;9.27;;;;;;;-0.73;100.00;99538.53;5132257;27;20035;-71
2024/01/27 06:34:56;;;;;;;16.07;8.40;;;;;;;-0.68;100.00;99533.06;5129956;27;20054;-66
2024/01/27 06:37:22;;;;;;;16.60;8.87;;;;;;;-0.66;100.00;99526.81;5132699;27;20031;-71
2024/01/27 06:39:48;;;;;;;18.17;9.43;;;;;;;-0.63;100.00;99538.84;5098273;28;20113;-71
2024/01/27 06:42:14;;;;;;;20.13;10.13;;;;;;;-0.60;100.00;99538.66;5134279;27;20402;-72
2024/01/27 06:44:39;;;;;;;18.07;9.53;;;;;;;-0.56;100.00;99547.97;5116425;27;20042;-71
2024/01/27 06:47:05;;;;;;;18.30;9.50;;;;;;;-0.51;100.00;99538.94;5138218;27;20470;-70
2024/01/27 06:49:31;;;;;;;18.43;9.40;;;;;;;-0.47;100.00;99543.06;5140743;27;20047;-70
2024/01/27 06:51:57;;;;;;;15.27;8.70;;;;;;;-0.41;100.00;99554.88;5135404;27;20058;-65
2024/01/27 06:54:23;;;;;;;16.37;9.00;;;;;;;-0.38;100.00;99555.53;5135924;27;20419;-69
2024/01/27 06:56:48;;;;;;;15.70;8.33;;;;;;;-0.30;100.00;99542.88;5137006;27;20039;-71
2024/01/27 06:59:14;;;;;;;15.17;8.70;;;;;;;-0.22;100.00;99552.84;5134027;27;20051;-70
2024/01/27 07:01:51;;;;;;;16.70;8.50;;;;;;;-0.01;100.00;99549.78;5136285;27;20497;-71
2024/01/27 07:04:17;;;;;;;19.20;9.83;;;;;;;-0.05;100.00;99555.28;5136206;27;20039;-72
2024/01/27 07:06:44;;;;;;;19.27;10.10;;;;;;;0.08;100.00;99552.75;5135000;27;20493;-70
2024/01/27 07:09:10;;;;;;;22.60;10.60;;;;;;;0.09;100.00;99560.50;5117851;27;20075;-71
2024/01/27 07:11:36;;;;;;;20.43;10.10;;;;;;;0.20;100.00;99562.44;5135600;27;20467;-70
2024/01/27 07:14:03;;;;;;;25.57;11.27;;;;;;;0.33;100.00;99565.94;5135921;27;20053;-70
2024/01/27 07:16:29;;;;;;;24.57;11.23;;;;;;;0.35;100.00;99562.31;5134743;27;20031;-70
2024/01/27 07:18:55;;;;;;;23.83;11.40;;;;;;;0.47;100.00;99563.31;5134914;27;20360;-72
2024/01/27 07:21:21;;;;;;;21.30;10.10;;;;;;;0.54;100.00;99569.84;5137137;27;20178;-71
2024/01/27 07:23:47;;;;;;;23.47;10.63;;;;;;;0.66;100.00;99569.88;5136031;27;20043;-71
2024/01/27 07:26:13;;;;;;;19.87;9.77;;;;;;;0.83;100.00;99567.00;5135848;27;20057;-69
2024/01/27 07:28:39;;;;;;;23.70;10.87;;;;;;;1.03;100.00;99563.94;5117340;27;20137;-71
2024/01/27 07:31:05;;;;;;;22.87;10.07;;;;;;;1.17;100.00;99576.13;5135369;27;20062;-71
2024/01/27 07:33:31;;;;;;;19.53;9.77;;;;;;;1.34;100.00;99578.44;5135389;27;20081;-70
2024/01/27 07:35:57;;;;;;;23.57;10.23;;;;;;;1.53;100.00;99584.16;5134620;27;20038;-72
2024/01/27 07:38:23;;;;;;;24.10;10.93;;;;;;;1.66;100.00;99585.00;5135200;27;20474;-73
2024/01/27 07:40:49;;;;;;;27.10;11.97;;;;;;;1.81;100.00;99577.88;5135253;27;20039;-72
2024/01/27 07:43:14;;;;;;;23.70;10.60;;;;;;;1.91;100.00;99598.09;5135162;27;20035;-71
2024/01/27 07:45:40;;;;;;;21.60;10.10;;;;;;;2.02;100.00;99599.97;5135463;27;20507;-71
2024/01/27 07:48:07;;;;;;;23.40;10.67;;;;;;;2.05;100.00;99597.97;5134492;27;20049;-72
2024/01/27 07:50:33;;;;;;;26.83;12.00;;;;;;;2.04;100.00;99598.94;5133981;27;20390;-71
2024/01/27 07:52:59;;;;;;;27.80;11.97;;;;;;;2.00;100.00;99610.56;5116998;27;20595;-71
2024/01/27 07:55:25;;;;;;;34.00;13.97;;;;;;;2.00;100.00;99609.72;5133700;27;20055;-71
2024/01/27 07:57:51;;;;;;;31.30;14.50;;;;;;;1.99;100.00;99608.88;5134655;27;20116;-72
2024/01/27 08:00:17;;;;;;;34.00;14.37;;;;;;;2.01;100.00;99607.00;5135324;27;20466;-71
2024/01/27 08:02:42;;;;;;;37.10;15.80;;;;;;;1.95;100.00;99610.06;5117306;27;20508;-70
2024/01/27 08:05:08;;;;;;;38.97;15.97;;;;;;;1.91;100.00;99607.75;5134781;27;20043;-70
2024/01/27 08:07:34;;;;;;;36.07;15.33;;;;;;;1.86;100.00;99605.41;5134588;27;20047;-71
2024/01/27 08:10:00;;;;;;;35.47;15.50;;;;;;;1.87;100.00;99604.50;5117009;27;20460;-71
2024/01/27 08:12:26;;;;;;;44.43;17.50;;;;;;;1.82;100.00;99617.06;5134823;27;20035;-72
2024/01/27 08:14:53;;;;;;;43.13;18.40;;;;;;;1.81;100.00;99619.78;5133429;27;20456;-71
2024/01/27 08:17:19;;;;;;;42.63;17.70;;;;;;;1.72;100.00;99626.47;5133520;27;20089;-68
2024/01/27 08:19:45;;;;;;;43.67;17.97;;;;;;;1.69;100.00;99624.88;5134037;27;20042;-70
2024/01/27 08:22:11;;;;;;;43.97;16.70;;;;;;;1.64;100.00;99618.28;5134836;27;20031;-70
2024/01/27 08:24:37;;;;;;;37.33;16.00;;;;;;;1.61;100.00;99614.09;5116587;27;20050;-70
2024/01/27 08:27:02;;;;;;;31.57;13.23;;;;;;;1.60;100.00;99616.81;5134608;27;20046;-68
2024/01/27 08:29:28;;;;;;;28.17;12.00;;;;;;;1.58;100.00;99621.31;5134239;27;20390;-72
2024/01/27 08:31:54;;;;;;;25.00;11.93;;;;;;;1.54;100.00;99627.69;5133647;27;20043;-71
2024/01/27 08:34:20;;;;;;;21.73;10.60;;;;;;;1.52;100.00;99635.63;5134017;27;20047;-71
2024/01/27 08:36:46;;;;;;;19.73;9.17;;;;;;;1.50;100.00;99639.31;5133974;27;20051;-71
2024/01/27 08:39:13;;;;;;;16.13;8.77;;;;;;;1.51;100.00;99638.34;5134107;27;20498;-71
2024/01/27 08:41:38;;;;;;;16.77;9.03;;;;;;;1.52;100.00;99647.91;5132977;27;20459;-69
2024/01/27 08:44:04;;;;;;;21.87;9.37;;;;;;;1.49;100.00;99651.53;5132689;27;20134;-71
2024/01/27 08:46:30;;;;;;;16.57;8.13;;;;;;;1.49;100.00;99646.31;5133675;27;20070;-71
2024/01/27 08:48:56;;;;;;;14.33;8.27;;;;;;;1.50;100.00;99652.41;5133577;27;20031;-71
2024/01/27 08:51:22;;;;;;;15.07;7.80;;;;;;;1.48;100.00;99652.50;5115562;27;20035;-71
2024/01/27 08:53:50;;;;;;;16.93;8.73;;;;;;;1.50;100.00;99652.41;5115083;27;20042;-70
2024/01/27 08:56:17;;;;;;;14.07;8.30;;;;;;;1.49;100.00;99656.78;5132476;27;20075;-70
2024/01/27 08:58:43;;;;;;;13.97;8.17;;;;;;;1.44;100.00;99650.19;5115771;27;20039;-71
2024/01/27 09:01:12;;;;;;;15.47;8.27;;;;;;;1.57;100.00;99653.66;5133915;27;20052;-70
2024/01/27 09:03:42;;;;;;;15.40;8.17;;;;;;;1.65;100.00;99648.75;5132511;27;20050;-70
2024/01/27 09:06:08;;;;;;;12.83;7.87;;;;;;;1.59;100.00;99650.00;5115577;27;20070;-71
2024/01/27 09:08:34;;;;;;;14.43;8.07;;;;;;;1.50;100.00;99655.84;5114943;27;20418;-70
2024/01/27 09:11:01;;;;;;;17.23;8.60;;;;;;;1.46;100.00;99646.50;5132665;27;20127;-71
2024/01/27 09:13:27;;;;;;;12.90;8.13;;;;;;;1.39;100.00;99649.63;5115658;27;20435;-72
2024/01/27 09:15:53;;;;;;;14.43;7.87;;;;;;;1.38;100.00;99647.97;5115849;27;20089;-70
2024/01/27 09:18:18;;;;;;;17.40;9.20;;;;;;;1.39;100.00;99653.09;5133025;27;20047;-72
2024/01/27 09:20:44;;;;;;;13.53;7.50;;;;;;;1.50;100.00;99658.47;5133066;27;20035;-70
2024/01/27 09:23:12;;;;;;;12.00;7.20;;;;;;;1.64;100.00;99654.94;5131931;27;20099;-70
2024/01/27 09:25:39;;;;;;;11.97;7.27;;;;;;;1.54;100.00;99662.56;5098246;27;20039;-70
2024/01/27 09:28:06;;;;;;;14.47;7.17;;;;;;;1.38;100.00;99654.03;5132484;27;20031;-70
2024/01/27 09:30:32;;;;;;;13.33;7.40;;;;;;;1.35;100.00;99661.25;5098473;27;20058;-70
2024/01/27 09:33:00;;;;;;;12.63;7.00;;;;;;;1.33;100.00;99656.13;5115451;27;20059;-71
2024/01/27 09:35:27;;;;;;;13.33;7.03;;;;;;;1.44;100.00;99658.88;5060148;28;20432;-71
2024/01/27 09:37:55;;;;;;;11.87;7.33;;;;;;;1.35;100.00;99656.84;5076366;28;20055;-71
2024/01/27 09:40:20;;;;;;;12.97;7.03;;;;;;;1.43;100.00;99657.19;5029661;28;20088;-72
2024/01/27 09:42:59;;;;;;;11.60;6.80;;;;;;;1.68;100.00;99667.72;4997034;28;20065;-72
2024/01/27 09:45:24;;;;;;;11.60;6.53;;;;;;;1.55;100.00;99663.41;5029452;28;20045;-69
2024/01/27 09:47:51;;;;;;;13.23;7.33;;;;;;;1.63;100.00;99664.56;5026781;28;20056;-71
2024/01/27 09:50:18;;;;;;;14.17;7.50;;;;;;;1.60;100.00;99663.91;5029662;28;20081;-71
2024/01/27 09:52:44;;;;;;;11.73;6.90;;;;;;;1.62;100.00;99660.28;5030163;28;20084;-71
2024/01/27 09:55:10;;;;;;;13.17;7.70;;;;;;;1.65;100.00;99656.59;5010456;28;20133;-71
2024/01/27 09:57:38;;;;;;;15.10;7.83;;;;;;;1.69;100.00;99664.16;4958500;28;20477;-71
2024/01/27 10:00:06;;;;;;;13.17;8.37;;;;;;;1.72;100.00;99657.91;5012937;28;20057;-71
2024/01/27 10:02:33;;;;;;;15.30;8.33;;;;;;;1.68;100.00;99659.88;5026724;28;20045;-70
2024/01/27 10:05:00;;;;;;;15.17;8.37;;;;;;;1.67;100.00;99665.22;4996209;28;20042;-71
2024/01/27 10:07:26;;;;;;;16.53;8.70;;;;;;;1.64;100.00;99662.78;5026886;28;20082;-69
2024/01/27 10:09:51;;;;;;;14.83;8.43;;;;;;;1.60;100.00;99674.38;5052184;28;20136;-70
2024/01/27 10:12:18;;;;;;;16.90;9.07;;;;;;;1.64;100.00;99663.63;5123473;27;20054;-69
2024/01/27 10:14:48;;;;;;;17.03;8.83;;;;;;;1.59;100.00;99670.09;5112816;27;20479;-71
2024/01/27 10:17:26;;;;;;;22.08;10.18;;;;;;;1.76;100.00;99661.97;5129618;28;20050;-70
2024/01/27 10:20:03;;;;;;;22.47;10.20;;;;;;;1.74;100.00;99674.31;5130514;27;20054;-69
2024/01/27 10:22:44;;;;;;;16.77;9.47;;;;;;;1.69;100.00;99676.44;5115232;27;20175;-69
2024/01/27 10:25:10;;;;;;;22.47;10.50;;;;;;;1.53;100.00;99684.44;5132036;27;20420;-68
2024/01/27 10:27:36;;;;;;;19.93;10.60;;;;;;;1.51;100.00;99690.69;5136097;27;20284;-69
2024/01/27 10:30:03;;;;;;;17.73;9.10;;;;;;;1.56;100.00;99688.63;5116451;27;20070;-70
2024/01/27 10:32:32;;;;;;;22.10;10.80;;;;;;;1.53;100.00;99678.34;5115504;27;20482;-69
2024/01/27 10:35:05;;;;;;;17.53;9.93;;;;;;;1.57;100.00;99674.59;5135754;27;20307;-69
2024/01/27 10:37:31;;;;;;;20.73;9.97;;;;;;;1.51;100.00;99701.16;5132079;27;20479;-68
2024/01/27 10:40:04;;;;;;;18.77;10.17;;;;;;;1.63;100.00;99700.34;5134447;27;20042;-68
2024/01/27 10:42:31;;;;;;;18.23;10.30;;;;;;;1.47;100.00;99699.69;5134708;27;20089;-67
2024/01/27 10:45:00;;;;;;;18.57;10.43;;;;;;;1.54;100.00;99696.56;5134192;27;20027;-69
2024/01/27 10:47:31;;;;;;;18.47;10.07;;;;;;;1.45;100.00;99712.03;5132646;27;20139;-68
2024/01/27 10:49:58;;;;;;;21.53;10.83;;;;;;;1.44;100.00;99712.97;5135860;27;20042;-70
2024/01/27 10:52:28;;;;;;;18.30;10.50;;;;;;;1.49;100.00;99718.75;5135484;27;20146;-69
2024/01/27 10:55:06;;;;;;;23.27;10.93;;;;;;;1.53;100.00;99728.09;5135244;27;20118;-69
2024/01/27 10:57:33;;;;;;;17.00;9.97;;;;;;;1.46;100.00;99732.06;5132752;27;20031;-68
2024/01/27 11:00:06;;;;;;;21.47;10.30;;;;;;;1.56;100.00;99735.72;5135245;27;20068;-68
2024/01/27 11:02:34;;;;;;;19.60;10.63;;;;;;;1.45;100.00;99733.81;5135069;27;20111;-70
2024/01/27 11:05:02;;;;;;;18.93;10.47;;;;;;;1.38;100.00;99742.97;5135322;27;20050;-70
2024/01/27 11:07:31;;;;;;;19.00;10.27;;;;;;;1.40;100.00;99745.50;5117165;27;20608;-69
2024/01/27 11:09:57;;;;;;;20.27;10.77;;;;;;;1.30;100.00;99754.88;5098807;27;20078;-73
2024/01/27 11:12:23;;;;;;;20.57;10.97;;;;;;;1.31;100.00;99746.09;5135242;27;20047;-68
2024/01/27 11:14:51;;;;;;;19.83;11.43;;;;;;;1.31;100.00;99749.56;5133565;27;20100;-68